Time;durP1;ratioP1;P1;durP2;ratioP2;P2;SDS_P1;SDS_P2;PMS_P1;PMS_P2;Temp;Humidity;BMP_temperature;BMP_pressure;BME280_temperature;BME280_humidity;BME280_pressure;Samples;Min_cycle;Max_cycle;Signal;HPM_P1;HPM_P2
2021/09/30 00:01:31;;;;;;;2.70;1.77;;;10.20;99.90;;;-141.85;100.00;63675.41;4954009;29;20336;-62
2021/09/30 00:03:59;;;;;;;3.87;2.03;;;10.20;99.90;;;-141.85;100.00;63675.41;4954532;29;20209;-63
2021/09/30 00:06:27;;;;;;;3.10;1.63;;;10.20;99.90;;;-141.85;100.00;63675.41;4954440;29;20287;-62
2021/09/30 00:08:55;;;;;;;3.13;1.90;;;10.10;99.90;;;-141.85;100.00;63675.41;4954206;29;20299;-62
2021/09/30 00:11:26;;;;;;;2.20;1.77;;;10.10;99.90;;;-141.85;100.00;63675.41;4954109;29;20680;-63
2021/09/30 00:13:57;;;;;;;2.50;1.90;;;10.10;99.90;;;-141.85;100.00;63675.41;4954520;29;20300;-63
2021/09/30 00:16:52;;;;;;;2.10;1.80;;;10.00;99.90;;;-141.85;100.00;63675.41;4954145;29;20236;-63
2021/09/30 00:33:25;;;;;;;1.90;1.77;;;9.80;99.90;;;-141.85;100.00;63675.41;4953836;29;20615;-63
2021/09/30 00:36:09;;;;;;;2.33;1.70;;;9.90;99.90;;;-141.85;100.00;63675.41;4956617;28;20224;-62
2021/09/30 00:47:03;;;;;;;2.80;1.87;;;9.90;99.90;;;-141.85;100.00;63675.41;4957406;29;20280;-62
2021/09/30 00:52:17;;;;;;;2.00;1.70;;;9.90;99.90;;;-141.85;100.00;63675.41;4954954;28;20207;-63
2021/09/30 00:55:09;;;;;;;1.80;1.70;;;9.90;99.90;;;-141.85;100.00;63675.41;4957648;29;20209;-63
2021/09/30 01:46:51;;;;;;;2.60;1.63;;;10.10;99.90;;;-141.85;100.00;63675.41;4935991;29;20226;-63
2021/09/30 01:52:28;;;;;;;1.63;1.40;;;10.10;99.90;;;-141.85;100.00;63675.41;4937344;29;20622;-62
2021/09/30 02:20:35;;;;;;;1.90;1.53;;;10.10;99.90;;;-141.85;100.00;63675.41;4955838;29;20664;-61
2021/09/30 02:28:48;;;;;;;3.03;1.60;;;10.00;99.90;;;-141.85;100.00;63675.41;4954639;28;20295;-62
2021/09/30 02:59:37;;;;;;;3.90;1.40;;;9.90;99.90;;;-141.85;100.00;63675.41;4936064;29;20201;-63
2021/09/30 03:02:07;;;;;;;3.77;1.70;;;9.90;99.90;;;-141.85;100.00;63675.41;4953863;29;20319;-63
2021/09/30 03:04:38;;;;;;;2.67;1.60;;;9.90;99.90;;;-141.85;100.00;63675.41;4955340;28;20212;-62
2021/09/30 03:07:09;;;;;;;1.97;1.67;;;9.90;99.90;;;-141.85;100.00;63675.41;4955466;29;20283;-63
2021/09/30 03:09:42;;;;;;;1.80;1.70;;;9.90;99.90;;;-141.85;100.00;63675.41;4955234;29;20220;-62
2021/09/30 03:12:22;;;;;;;3.60;1.90;;;9.90;99.90;;;-141.85;100.00;63675.41;4954884;29;20832;-63
2021/09/30 03:15:02;;;;;;;1.90;1.80;;;9.90;99.90;;;-141.85;100.00;63675.41;4955039;29;20271;-63
2021/09/30 03:17:42;;;;;;;4.47;2.30;;;9.90;99.90;;;-141.85;100.00;63675.41;4954461;29;20672;-63
2021/09/30 03:20:39;;;;;;;3.30;1.70;;;9.80;99.90;;;-141.85;100.00;63675.41;4955233;29;20268;-62
2021/09/30 03:23:11;;;;;;;2.97;2.00;;;9.80;99.90;;;-141.85;100.00;63675.41;4955047;29;20187;-63
2021/09/30 03:25:42;;;;;;;3.83;2.10;;;9.70;99.90;;;-141.85;100.00;63675.41;4954941;29;20272;-62
2021/09/30 03:28:12;;;;;;;3.43;1.90;;;9.70;99.90;;;-141.85;100.00;63675.41;4954990;29;20220;-62
2021/09/30 03:30:41;;;;;;;2.67;1.80;;;9.80;99.90;;;-141.85;100.00;63675.41;4954955;29;20189;-62
2021/09/30 03:33:11;;;;;;;2.00;1.80;;;9.80;99.90;;;-141.85;100.00;63675.41;4954462;28;20209;-62
2021/09/30 03:35:41;;;;;;;3.27;1.80;;;9.80;99.90;;;-141.85;100.00;63675.41;4954506;29;20255;-63
2021/09/30 03:38:11;;;;;;;3.23;1.50;;;9.80;99.90;;;-141.85;100.00;63675.41;4954625;28;20652;-63
2021/09/30 03:40:40;;;;;;;3.13;1.67;;;9.80;99.90;;;-141.85;100.00;63675.41;4954887;29;20311;-63
2021/09/30 03:43:08;;;;;;;5.37;1.80;;;9.80;99.90;;;-141.85;100.00;63675.41;4954900;29;20275;-62
2021/09/30 03:45:37;;;;;;;1.70;1.60;;;9.80;99.90;;;-141.85;100.00;63675.41;4954588;29;20629;-63
2021/09/30 03:48:08;;;;;;;3.07;1.80;;;9.80;99.90;;;-141.85;100.00;63675.41;4954614;29;20208;-62
2021/09/30 03:50:44;;;;;;;4.33;1.90;;;9.90;99.90;;;-141.85;100.00;63675.41;4954623;29;20221;-63
2021/09/30 03:53:16;;;;;;;3.30;1.60;;;9.80;99.90;;;-141.85;100.00;63675.41;4954397;29;20708;-62
2021/09/30 03:56:00;;;;;;;3.00;1.57;;;9.80;99.90;;;-141.85;100.00;63675.41;4954483;29;20304;-63
2021/09/30 04:01:15;;;;;;;3.23;1.40;;;9.80;99.90;;;-141.85;100.00;63675.41;4954401;29;20275;-63
2021/09/30 04:03:43;;;;;;;2.77;1.43;;;9.90;99.90;;;-141.85;100.00;63675.41;4954198;29;20192;-63
2021/09/30 04:06:13;;;;;;;3.50;1.70;;;9.90;99.90;;;-141.85;100.00;63675.41;4954418;29;20236;-62
2021/09/30 04:08:42;;;;;;;2.47;1.53;;;9.90;99.90;;;-141.85;100.00;63675.41;4954402;28;20308;-64
2021/09/30 04:11:10;;;;;;;2.50;1.50;;;9.90;99.90;;;-141.85;100.00;63675.41;4957093;29;20680;-63
2021/09/30 04:13:38;;;;;;;3.27;1.40;;;9.80;99.90;;;-141.85;100.00;63675.41;4958244;29;20232;-62
2021/09/30 04:16:07;;;;;;;2.03;1.70;;;9.80;99.90;;;-141.85;100.00;63675.41;4958114;29;20230;-62
2021/09/30 04:18:35;;;;;;;2.23;1.50;;;9.80;99.90;;;-141.85;100.00;63675.41;4958007;29;20204;-62
2021/09/30 04:21:03;;;;;;;2.13;1.53;;;9.80;99.90;;;-141.85;100.00;63675.41;4957779;29;20200;-62
2021/09/30 04:23:31;;;;;;;3.47;1.70;;;9.80;99.90;;;-141.85;100.00;63675.41;4957481;29;20299;-63
2021/09/30 04:26:00;;;;;;;1.77;1.60;;;9.80;99.90;;;-141.85;100.00;63675.41;4957970;29;20211;-62
2021/09/30 04:28:28;;;;;;;2.17;1.47;;;9.80;99.90;;;-141.85;100.00;63675.41;4957909;29;20244;-62
2021/09/30 04:30:56;;;;;;;2.20;1.50;;;9.70;99.90;;;-141.85;100.00;63675.41;4957754;29;20303;-62
2021/09/30 04:33:24;;;;;;;2.10;1.90;;;9.70;99.90;;;-141.85;100.00;63675.41;4957454;29;20208;-63
2021/09/30 04:35:53;;;;;;;4.60;1.90;;;9.70;99.90;;;-141.85;100.00;63675.41;4957610;29;20225;-63
2021/09/30 04:38:21;;;;;;;4.10;1.63;;;9.70;99.90;;;-141.85;100.00;63675.41;4957686;29;20224;-62
2021/09/30 04:40:49;;;;;;;2.47;1.40;;;9.70;99.90;;;-141.85;100.00;63675.41;4957705;29;20291;-63
2021/09/30 04:43:18;;;;;;;2.03;1.87;;;9.70;99.90;;;-141.85;100.00;63675.41;4957483;29;20255;-63
2021/09/30 04:45:48;;;;;;;3.37;2.30;;;9.70;99.90;;;-141.85;100.00;63675.41;4957472;29;20295;-63
2021/09/30 04:48:16;;;;;;;2.13;1.57;;;9.70;99.90;;;-141.85;100.00;63675.41;4957135;29;20205;-63
2021/09/30 04:50:44;;;;;;;3.50;1.63;;;9.70;99.90;;;-141.85;100.00;63675.41;4957685;29;20283;-63
2021/09/30 04:53:12;;;;;;;2.93;1.87;;;9.60;99.90;;;-141.85;100.00;63675.41;4957441;29;20795;-62
2021/09/30 04:55:40;;;;;;;2.67;1.80;;;9.60;99.90;;;-141.85;100.00;63675.41;4957026;29;20626;-62
2021/09/30 04:58:08;;;;;;;2.10;1.70;;;9.60;99.90;;;-141.85;100.00;63675.41;4946493;29;20296;-62
2021/09/30 05:00:38;;;;;;;3.33;1.57;;;9.60;99.90;;;-141.85;100.00;63675.41;4937789;29;20242;-63
2021/09/30 05:03:06;;;;;;;2.07;1.87;;;9.60;99.90;;;-141.85;100.00;63675.41;4937552;29;20696;-62
2021/09/30 05:05:34;;;;;;;3.07;1.80;;;9.50;99.90;;;-141.85;100.00;63675.41;4937744;29;20205;-62
2021/09/30 05:08:02;;;;;;;2.73;2.20;;;9.50;99.90;;;-141.85;100.00;63675.41;4937876;29;20777;-63
2021/09/30 05:10:33;;;;;;;3.20;2.40;;;9.40;99.90;;;-141.85;100.00;63675.41;4937993;29;20217;-62
2021/09/30 05:13:04;;;;;;;6.47;2.87;;;9.50;99.90;;;-141.85;100.00;63675.41;4937829;29;20214;-62
2021/09/30 05:15:36;;;;;;;3.47;2.00;;;9.50;99.90;;;-141.85;100.00;63675.41;4938894;29;20300;-62
2021/09/30 05:18:06;;;;;;;2.83;2.30;;;9.50;99.90;;;-141.85;100.00;63675.41;4944623;29;20246;-63
2021/09/30 05:20:35;;;;;;;4.20;2.17;;;9.50;99.90;;;-141.85;100.00;63675.41;4947476;28;20192;-63
2021/09/30 05:23:03;;;;;;;2.10;1.70;;;9.50;99.90;;;-141.85;100.00;63675.41;4945302;29;20204;-62
2021/09/30 05:25:31;;;;;;;4.07;2.13;;;9.60;99.90;;;-141.85;100.00;63675.41;4940039;29;20239;-63
2021/09/30 05:28:02;;;;;;;9.07;2.67;;;9.60;99.90;;;-141.85;100.00;63675.41;4942450;29;20201;-63
2021/09/30 05:30:31;;;;;;;4.27;2.10;;;9.60;99.90;;;-141.85;100.00;63675.41;4938844;29;20264;-63
2021/09/30 05:32:59;;;;;;;2.07;1.60;;;9.60;99.90;;;-141.85;100.00;63675.41;4956240;29;20681;-62
2021/09/30 05:35:30;;;;;;;3.13;1.90;;;9.60;99.90;;;-141.85;100.00;63675.41;4955433;29;20204;-63
2021/09/30 05:37:58;;;;;;;2.77;1.60;;;9.60;99.90;;;-141.85;100.00;63675.41;4956641;29;20575;-63
2021/09/30 05:40:28;;;;;;;2.70;1.77;;;9.60;99.90;;;-141.85;100.00;63675.41;4956440;29;20205;-62
2021/09/30 05:42:58;;;;;;;4.60;2.00;;;9.60;99.90;;;-141.85;100.00;63675.41;4942123;29;20217;-62
2021/09/30 05:45:26;;;;;;;2.23;1.80;;;9.60;99.90;;;-141.85;100.00;63675.41;4937370;29;20750;-62
2021/09/30 05:47:54;;;;;;;2.10;1.80;;;9.70;99.90;;;-141.85;100.00;63675.41;4942192;29;20209;-63
2021/09/30 05:50:23;;;;;;;4.53;1.80;;;9.70;99.90;;;-141.85;100.00;63675.41;4953370;29;20233;-63
2021/09/30 05:52:53;;;;;;;2.40;1.73;;;9.80;99.90;;;-141.85;100.00;63675.41;4956328;29;20232;-63
2021/09/30 05:55:21;;;;;;;2.80;1.93;;;9.80;99.90;;;-141.85;100.00;63675.41;4940680;29;20239;-62
2021/09/30 05:57:49;;;;;;;2.83;1.80;;;9.80;99.90;;;-141.85;100.00;63675.41;4944456;29;20239;-62
2021/09/30 06:00:23;;;;;;;4.57;2.43;;;9.80;99.90;;;-141.85;100.00;63675.41;4955756;29;20260;-63
2021/09/30 06:11:19;;;;;;;4.47;2.00;;;10.00;99.90;;;-141.85;100.00;63675.41;4956070;29;20271;-62
2021/09/30 06:13:53;;;;;;;3.73;2.00;;;10.10;99.90;;;-141.85;100.00;63675.41;4955770;29;20602;-63
2021/09/30 06:16:24;;;;;;;7.50;2.07;;;10.10;99.90;;;-141.85;100.00;63675.41;4955921;29;20231;-63
2021/09/30 06:18:52;;;;;;;3.60;1.87;;;10.20;99.90;;;-141.85;100.00;63675.41;4955499;29;20853;-63
2021/09/30 06:21:20;;;;;;;3.13;1.60;;;10.20;99.90;;;-141.85;100.00;63675.41;4955768;29;20207;-63
2021/09/30 06:23:50;;;;;;;3.53;1.60;;;10.30;99.90;;;-141.85;100.00;63675.41;4955740;29;20200;-63
2021/09/30 06:26:18;;;;;;;4.17;1.77;;;10.30;99.90;;;-141.85;100.00;63675.41;4955676;29;20291;-63
2021/09/30 06:28:46;;;;;;;3.67;1.80;;;10.40;99.90;;;-141.85;100.00;63675.41;4955710;29;20205;-63
2021/09/30 06:31:14;;;;;;;4.07;1.90;;;10.40;99.90;;;-141.85;100.00;63675.41;4955432;29;20244;-63
2021/09/30 06:33:42;;;;;;;4.40;2.10;;;10.50;99.90;;;-141.85;100.00;63675.41;4954945;28;20201;-63
2021/09/30 06:36:10;;;;;;;2.87;1.60;;;10.50;99.90;;;-141.85;100.00;63675.41;4955341;29;20292;-62
2021/09/30 06:38:40;;;;;;;4.40;1.80;;;10.60;99.90;;;-141.85;100.00;63675.41;4955623;29;20189;-62
2021/09/30 06:41:10;;;;;;;3.70;2.10;;;10.70;99.90;;;-141.85;100.00;63675.41;4955348;29;20740;-63
2021/09/30 06:43:39;;;;;;;5.00;2.00;;;10.70;99.90;;;-141.85;100.00;63675.41;4955219;29;20744;-63
2021/09/30 06:46:07;;;;;;;5.73;1.57;;;10.80;99.90;;;-141.85;100.00;63675.41;4955421;29;20240;-62
2021/09/30 06:48:35;;;;;;;5.67;1.80;;;10.80;99.90;;;-141.85;100.00;63675.41;4955016;29;20231;-63
2021/09/30 06:51:06;;;;;;;1.90;1.57;;;10.80;99.90;;;-141.85;100.00;63675.41;4955397;29;20669;-62
2021/09/30 06:53:34;;;;;;;2.80;1.63;;;10.90;99.90;;;-141.85;100.00;63675.41;4955384;29;20211;-63
2021/09/30 06:56:05;;;;;;;2.00;1.80;;;10.90;99.90;;;-141.85;100.00;63675.41;4955188;29;20208;-63
2021/09/30 06:58:41;;;;;;;2.87;1.87;;;10.90;99.90;;;-141.85;100.00;63675.41;4941231;29;20280;-63
2021/09/30 07:01:10;;;;;;;5.27;2.00;;;11.10;99.90;;;-141.85;100.00;63675.41;4935465;29;20268;-63
2021/09/30 07:03:39;;;;;;;2.10;1.60;;;11.10;99.90;;;-141.85;100.00;63675.41;4935795;29;20293;-63
2021/09/30 07:06:07;;;;;;;3.37;1.73;;;11.20;99.90;;;-141.85;100.00;63675.41;4935907;29;20292;-63
2021/09/30 07:08:35;;;;;;;3.13;1.63;;;11.20;99.90;;;-141.85;100.00;63675.41;4935656;29;20739;-63
2021/09/30 07:11:04;;;;;;;2.83;1.80;;;11.30;99.90;;;-141.85;100.00;63675.41;4935687;29;20201;-62
2021/09/30 07:13:33;;;;;;;4.33;1.80;;;11.40;99.90;;;-141.85;100.00;63675.41;4935637;29;20313;-64
2021/09/30 07:16:01;;;;;;;6.10;2.57;;;11.40;99.90;;;-141.85;100.00;63675.41;4935743;29;20205;-62
2021/09/30 07:18:29;;;;;;;2.80;1.83;;;11.50;99.90;;;-141.85;100.00;63675.41;4935451;29;20229;-63
2021/09/30 07:21:00;;;;;;;3.20;1.90;;;11.50;99.90;;;-141.85;100.00;63675.41;4935322;29;20237;-63
2021/09/30 07:23:31;;;;;;;2.20;1.80;;;11.50;99.90;;;-141.85;100.00;63675.41;4935745;29;20284;-62
2021/09/30 07:26:00;;;;;;;7.40;2.20;;;11.60;99.90;;;-141.85;100.00;63675.41;4935402;29;20610;-65
2021/09/30 07:28:28;;;;;;;5.47;1.80;;;11.60;99.90;;;-141.85;100.00;63675.41;4935176;29;20205;-62
2021/09/30 07:30:58;;;;;;;4.63;1.80;;;11.60;99.90;;;-141.85;100.00;63675.41;4935491;29;20658;-64
2021/09/30 07:33:26;;;;;;;5.13;2.00;;;11.70;99.90;;;-141.85;100.00;63675.41;4935305;29;20213;-64
2021/09/30 07:35:54;;;;;;;6.67;1.97;;;11.70;99.90;;;-141.85;100.00;63675.41;4935528;29;20233;-63
2021/09/30 07:38:22;;;;;;;4.53;1.80;;;11.90;99.90;;;-141.85;100.00;63675.41;4935483;29;20268;-63
2021/09/30 07:40:51;;;;;;;3.43;1.67;;;11.90;99.90;;;-141.85;100.00;63675.41;4935800;29;20273;-64
2021/09/30 07:43:19;;;;;;;2.90;1.70;;;11.90;99.90;;;-141.85;100.00;63675.41;4936038;29;20284;-63
2021/09/30 07:45:49;;;;;;;5.67;2.00;;;12.00;99.90;;;-141.85;100.00;63675.41;4938258;29;20253;-64
2021/09/30 07:48:18;;;;;;;3.03;1.77;;;12.00;99.90;;;-141.85;100.00;63675.41;4939071;29;20614;-63
2021/09/30 07:50:47;;;;;;;3.33;1.70;;;12.00;99.90;;;-141.85;100.00;63675.41;4939471;29;20237;-63
2021/09/30 07:53:15;;;;;;;3.13;1.63;;;12.10;99.90;;;-141.85;100.00;63675.41;4939459;29;20229;-64
2021/09/30 07:55:44;;;;;;;4.50;2.00;;;12.20;99.90;;;-141.85;100.00;63675.41;4939247;29;20240;-63
2021/09/30 07:58:12;;;;;;;2.20;2.00;;;12.20;99.90;;;-141.85;100.00;63675.41;4950196;29;20660;-63
2021/09/30 08:00:43;;;;;;;4.57;2.20;;;12.30;99.90;;;-141.85;100.00;63675.41;4958047;29;20347;-64
2021/09/30 08:03:12;;;;;;;4.67;2.30;;;12.20;99.90;;;-141.85;100.00;63675.41;4958364;29;20189;-63
2021/09/30 08:05:41;;;;;;;2.60;1.80;;;12.40;99.90;;;-141.85;100.00;63675.41;4958359;29;20208;-63
2021/09/30 08:08:10;;;;;;;4.20;1.80;;;12.50;99.90;;;-141.85;100.00;63675.41;4958166;29;20207;-65
2021/09/30 08:10:40;;;;;;;2.70;2.03;;;12.50;99.90;;;-141.85;100.00;63675.41;4957887;29;20209;-62
2021/09/30 08:13:08;;;;;;;4.10;1.90;;;12.50;99.90;;;-141.85;100.00;63675.41;4958102;29;20283;-62
2021/09/30 08:15:37;;;;;;;3.30;1.77;;;12.60;99.90;;;-141.85;100.00;63675.41;4958048;29;20291;-63
2021/09/30 08:18:05;;;;;;;5.50;1.70;;;12.60;99.90;;;-141.85;100.00;63675.41;4957507;29;20256;-63
2021/09/30 08:20:41;;;;;;;1.60;1.50;;;12.60;99.90;;;-141.85;100.00;63675.41;4957965;29;20263;-63
2021/09/30 08:23:13;;;;;;;3.07;1.60;;;12.60;99.90;;;-141.85;100.00;63675.41;4957716;29;20671;-63
2021/09/30 08:25:42;;;;;;;1.83;1.53;;;12.70;99.90;;;-141.85;100.00;63675.41;4957968;29;20209;-63
2021/09/30 08:28:11;;;;;;;4.13;1.93;;;12.70;99.90;;;-141.85;100.00;63675.41;4957779;29;20208;-63
2021/09/30 08:30:42;;;;;;;2.50;1.70;;;12.80;99.90;;;-141.85;100.00;63675.41;4957844;29;20239;-64
2021/09/30 08:33:11;;;;;;;3.30;1.60;;;12.80;99.90;;;-141.85;100.00;63675.41;4957591;29;20285;-62
2021/09/30 08:35:40;;;;;;;5.43;5.03;;;12.90;99.90;;;-141.85;100.00;63675.41;4957524;29;20531;-63
2021/09/30 08:38:09;;;;;;;4.72;1.80;;;12.90;99.90;;;-141.85;100.00;63675.41;4957664;29;20259;-62
2021/09/30 08:40:40;;;;;;;5.60;1.80;;;12.90;99.90;;;-141.85;100.00;63675.41;4957380;29;20200;-63
2021/09/30 08:43:08;;;;;;;3.60;1.80;;;13.00;99.90;;;-141.85;100.00;63675.41;4957547;29;20271;-62
2021/09/30 08:45:36;;;;;;;2.27;2.00;;;13.00;99.90;;;-141.85;100.00;63675.41;4957461;29;20203;-62
2021/09/30 08:48:07;;;;;;;7.17;2.20;;;13.10;99.90;;;-141.85;100.00;63675.41;4956807;29;20299;-63
2021/09/30 08:50:40;;;;;;;4.45;2.95;;;13.20;99.90;;;-141.85;100.00;63675.41;4958076;29;20266;-63
2021/09/30 08:53:11;;;;;;;3.20;2.10;;;13.30;99.90;;;-141.85;100.00;63675.41;4957272;29;20186;-63
2021/09/30 08:55:41;;;;;;;3.07;1.50;;;13.40;99.90;;;-141.85;100.00;63675.41;4956879;28;20181;-63
2021/09/30 08:58:11;;;;;;;3.58;1.60;;;13.40;99.90;;;-141.85;100.00;63675.41;4945806;29;20321;-63
2021/09/30 09:00:42;;;;;;;4.40;1.60;;;13.50;99.90;;;-141.85;100.00;63675.41;4937491;29;20284;-63
2021/09/30 09:03:10;;;;;;;2.93;1.50;;;13.50;99.90;;;-141.85;100.00;63675.41;4937405;29;20273;-63
2021/09/30 09:05:40;;;;;;;2.40;1.50;;;13.60;99.90;;;-141.85;100.00;63675.41;4937764;29;20264;-62
2021/09/30 09:08:11;;;;;;;3.65;1.52;;;13.60;99.90;;;-141.85;100.00;63675.41;4937798;29;20280;-63
2021/09/30 09:10:43;;;;;;;1.73;1.40;;;13.60;99.90;;;-141.85;100.00;63675.41;4938217;29;20527;-63
2021/09/30 09:13:14;;;;;;;2.22;1.38;;;13.70;99.90;;;-141.85;100.00;63675.41;4937621;29;20274;-63
2021/09/30 09:15:46;;;;;;;2.70;1.60;;;13.70;99.90;;;-141.85;100.00;63675.41;4937725;29;20186;-64
2021/09/30 09:18:21;;;;;;;2.92;1.60;;;13.80;99.90;;;-141.85;100.00;63675.41;4937175;29;20216;-62
2021/09/30 09:21:02;;;;;;;3.43;1.67;;;13.80;99.90;;;-141.85;100.00;63675.41;4937385;29;20284;-63
2021/09/30 09:23:31;;;;;;;3.30;1.77;;;13.70;99.90;;;-141.85;100.00;63675.41;4937753;29;20221;-63
2021/09/30 09:26:12;;;;;;;3.10;2.00;;;13.80;99.90;;;-141.85;100.00;63675.41;4937637;29;20229;-62
2021/09/30 09:29:02;;;;;;;3.90;1.80;;;13.80;99.90;;;-141.85;100.00;63675.41;4937614;29;20181;-63
2021/09/30 09:31:33;;;;;;;2.85;1.70;;;13.90;99.90;;;-141.85;100.00;63675.41;4937426;29;20249;-63
2021/09/30 09:34:18;;;;;;;3.58;1.60;;;13.90;99.90;;;-141.85;100.00;63675.41;4937207;29;20190;-62
2021/09/30 09:36:49;;;;;;;2.35;1.60;;;13.90;99.90;;;-141.85;100.00;63675.41;4937393;29;20280;-63
2021/09/30 09:39:18;;;;;;;3.42;1.50;;;14.00;99.90;;;-141.85;100.00;63675.41;4937247;29;20210;-63
2021/09/30 09:41:47;;;;;;;3.75;1.88;;;14.10;99.90;;;-141.85;100.00;63675.41;4937122;29;20248;-63
2021/09/30 09:44:19;;;;;;;5.00;1.92;;;14.30;99.90;;;-141.85;100.00;63675.41;4937115;29;20209;-63
2021/09/30 09:46:46;;;;;;;2.72;1.63;;;14.30;99.90;;;-141.85;100.00;63675.41;4936818;29;20229;-63
2021/09/30 09:49:19;;;;;;;3.20;1.70;;;14.40;99.90;;;-141.85;100.00;63675.41;4936861;29;20264;-64
2021/09/30 09:51:52;;;;;;;2.90;1.67;;;14.40;99.90;;;-141.85;100.00;63675.41;4937074;29;20186;-64
2021/09/30 09:54:22;;;;;;;4.07;1.98;;;14.50;99.90;;;-141.85;100.00;63675.41;4936825;29;20269;-62
2021/09/30 09:56:52;;;;;;;3.28;1.55;;;14.80;99.90;;;-141.85;100.00;63675.41;4937445;29;20189;-63
2021/09/30 09:59:29;;;;;;;3.90;1.63;;;14.70;99.90;;;-141.85;100.00;63675.41;4956025;29;20220;-62
2021/09/30 10:01:58;;;;;;;3.95;1.63;;;14.80;99.90;;;-141.85;100.00;63675.41;4955477;29;20240;-62
2021/09/30 10:04:28;;;;;;;2.75;1.80;;;15.00;99.90;;;-141.85;100.00;63675.41;4955735;29;20279;-63
2021/09/30 10:06:57;;;;;;;4.55;1.80;;;15.00;99.90;;;-141.85;100.00;63675.41;4955581;28;20212;-64
2021/09/30 10:09:25;;;;;;;4.05;2.17;;;15.10;99.90;;;-141.85;100.00;63675.41;4955581;29;20243;-64
2021/09/30 10:11:55;;;;;;;3.40;1.88;;;15.10;99.90;;;-141.85;100.00;63675.41;4955704;29;20627;-63
2021/09/30 10:14:25;;;;;;;2.97;1.80;;;15.20;99.90;;;-141.85;100.00;63675.41;4955593;29;20701;-63
2021/09/30 10:16:53;;;;;;;3.13;1.70;;;15.00;99.90;;;-141.85;100.00;63675.41;4955382;29;20296;-62
2021/09/30 10:19:25;;;;;;;4.70;1.77;;;15.00;99.90;;;-141.85;100.00;63675.41;4955413;29;20225;-63
2021/09/30 10:21:53;;;;;;;2.95;1.30;;;15.10;99.90;;;-141.85;100.00;63675.41;4955620;29;20193;-61
2021/09/30 10:24:23;;;;;;;2.97;1.73;;;15.30;99.90;;;-141.85;100.00;63675.41;4955579;29;20205;-62
2021/09/30 10:26:57;;;;;;;3.22;1.75;;;15.30;99.90;;;-141.85;100.00;63675.41;4955671;29;20181;-63
2021/09/30 10:29:43;;;;;;;2.88;1.98;;;15.30;99.90;;;-141.85;100.00;63675.41;4955258;29;20721;-63
2021/09/30 10:32:14;;;;;;;3.92;1.58;;;15.10;99.90;;;-141.85;100.00;63675.41;4955236;29;20690;-64
2021/09/30 10:34:46;;;;;;;4.07;1.70;;;15.00;99.90;;;-141.85;100.00;63675.41;4955470;29;20185;-63
2021/09/30 10:37:21;;;;;;;6.18;1.40;;;15.00;99.90;;;-141.85;100.00;63675.41;4955441;29;20276;-62
2021/09/30 10:40:16;;;;;;;3.67;1.63;;;15.10;99.90;;;-141.85;100.00;63675.41;4955397;29;20240;-63
2021/09/30 10:42:53;;;;;;;4.50;1.65;;;15.30;99.90;;;-141.85;100.00;63675.41;4955947;29;20203;-62
2021/09/30 10:45:24;;;;;;;3.17;1.42;;;15.60;99.90;;;-141.85;100.00;63675.41;4955737;29;20189;-63
2021/09/30 10:47:55;;;;;;;2.70;1.40;;;15.40;99.90;;;-141.85;100.00;63675.41;4954811;29;20321;-63
2021/09/30 10:50:49;;;;;;;4.03;1.67;;;15.30;99.90;;;-141.85;100.00;63675.41;4955316;29;20272;-64
2021/09/30 10:53:17;;;;;;;3.78;1.38;;;15.10;99.90;;;-141.85;100.00;63675.41;4955235;29;20232;-63
2021/09/30 10:55:46;;;;;;;2.85;1.50;;;14.90;99.90;;;-141.85;100.00;63675.41;4955583;29;20197;-63
2021/09/30 10:58:23;;;;;;;4.07;1.48;;;15.00;99.90;;;-141.85;100.00;63675.41;4943772;29;20732;-64
2021/09/30 11:00:57;;;;;;;4.57;1.90;;;15.00;99.90;;;-141.85;100.00;63675.41;4935707;29;20233;-63
2021/09/30 11:03:27;;;;;;;2.92;1.20;;;15.10;99.90;;;-141.85;100.00;63675.41;4935637;29;20186;-63
2021/09/30 11:06:19;;;;;;;2.95;1.17;;;15.10;99.90;;;-141.85;100.00;63675.41;4936070;29;20202;-63
2021/09/30 11:09:11;;;;;;;2.13;1.30;;;15.10;99.90;;;-141.85;100.00;63675.41;4935571;29;20228;-62
2021/09/30 11:11:41;;;;;;;4.35;1.25;;;15.10;99.90;;;-141.85;100.00;63675.41;4935232;29;20633;-63
2021/09/30 11:14:22;;;;;;;3.65;1.00;;;15.20;99.90;;;-141.85;100.00;63675.41;4934796;29;20253;-62
2021/09/30 11:16:54;;;;;;;2.03;0.90;;;15.30;99.90;;;-141.85;100.00;63675.41;4934328;29;20604;-63
2021/09/30 11:19:29;;;;;;;3.80;1.40;;;15.30;99.90;;;-141.85;100.00;63675.41;4935260;29;20616;-63
2021/09/30 11:22:01;;;;;;;3.30;1.10;;;15.30;99.90;;;-141.85;100.00;63675.41;4935731;29;20189;-62
2021/09/30 11:24:36;;;;;;;3.92;1.40;;;15.40;99.90;;;-141.85;100.00;63675.41;4935777;29;20576;-63
2021/09/30 11:27:18;;;;;;;2.58;1.13;;;15.30;99.90;;;-141.85;100.00;63675.41;4935718;29;20189;-63
2021/09/30 11:29:49;;;;;;;2.72;0.88;;;15.40;99.90;;;-141.85;100.00;63675.41;4935605;29;20285;-63
2021/09/30 11:32:29;;;;;;;2.28;0.80;;;15.50;99.90;;;-141.85;100.00;63675.41;4935402;29;20284;-62
2021/09/30 11:35:03;;;;;;;2.17;1.17;;;15.50;99.90;;;-141.85;100.00;63675.41;4935613;29;20272;-63
2021/09/30 11:37:42;;;;;;;4.53;1.10;;;15.50;99.90;;;-141.85;100.00;63675.41;4935233;29;20220;-63
2021/09/30 11:40:20;;;;;;;4.50;1.02;;;15.20;99.90;;;-141.85;100.00;63675.41;4935391;29;20316;-64
2021/09/30 11:42:54;;;;;;;4.68;1.13;;;14.90;99.90;;;-141.85;100.00;63675.41;4935357;29;20638;-63
2021/09/30 11:45:29;;;;;;;2.60;1.20;;;14.90;99.90;;;-141.85;100.00;63675.41;4935246;29;20237;-62
2021/09/30 11:48:10;;;;;;;2.70;1.10;;;15.10;99.90;;;-141.85;100.00;63675.41;4935264;29;20280;-62
2021/09/30 11:50:38;;;;;;;2.33;1.05;;;15.50;99.90;;;-141.85;100.00;63675.41;4935462;29;20190;-63
2021/09/30 11:53:11;;;;;;;1.73;1.10;;;15.80;99.90;;;-141.85;100.00;63675.41;4935480;29;20244;-62
2021/09/30 11:55:42;;;;;;;3.60;1.00;;;16.00;99.90;;;-141.85;100.00;63675.41;4935424;29;20221;-62
2021/09/30 11:58:14;;;;;;;2.22;0.90;;;16.40;99.90;;;-141.85;100.00;63675.41;4946421;29;20628;-63
2021/09/30 12:00:47;;;;;;;3.00;0.90;;;16.50;99.90;;;-141.85;100.00;63675.41;4954330;29;20243;-63
2021/09/30 12:03:20;;;;;;;2.60;0.90;;;16.50;99.90;;;-141.85;100.00;63675.41;4954258;29;20206;-63
2021/09/30 12:05:55;;;;;;;2.75;1.08;;;16.70;99.90;;;-141.85;100.00;63675.41;4954353;29;20209;-63
2021/09/30 12:08:25;;;;;;;1.90;0.93;;;17.00;99.90;;;-141.85;100.00;63675.41;4954431;29;20244;-63
2021/09/30 12:11:04;;;;;;;3.10;1.00;;;17.10;99.90;;;-141.85;100.00;63675.41;4954050;29;20593;-63
2021/09/30 12:13:32;;;;;;;3.88;1.00;;;17.10;99.90;;;-141.85;100.00;63675.41;4954182;29;20185;-63
2021/09/30 12:16:05;;;;;;;3.10;0.80;;;17.20;99.90;;;-141.85;100.00;63675.41;4954167;29;20200;-63
2021/09/30 12:18:34;;;;;;;2.30;0.90;;;17.10;99.90;;;-141.85;100.00;63675.41;4953976;29;20265;-64
2021/09/30 12:21:02;;;;;;;3.42;1.15;;;17.00;99.90;;;-141.85;100.00;63675.41;4953847;29;20700;-63
2021/09/30 12:23:32;;;;;;;3.83;0.90;;;16.90;99.90;;;-141.85;100.00;63675.41;4954174;29;20649;-63
2021/09/30 12:26:02;;;;;;;3.17;1.05;;;16.90;99.90;;;-141.85;100.00;63675.41;4953921;29;20699;-63
2021/09/30 12:28:31;;;;;;;2.13;0.90;;;16.90;99.90;;;-141.85;100.00;63675.41;4954182;29;20201;-62
2021/09/30 12:31:06;;;;;;;3.45;0.88;;;17.00;99.90;;;-141.85;100.00;63675.41;4955106;28;20197;-62
2021/09/30 12:33:35;;;;;;;2.00;1.05;;;17.10;99.90;;;-141.85;100.00;63675.41;4957576;29;20252;-62
2021/09/30 12:36:07;;;;;;;5.30;1.13;;;17.30;99.90;;;-141.85;100.00;63675.41;4957662;29;20244;-63
2021/09/30 12:38:39;;;;;;;1.65;0.80;;;17.40;99.90;;;-141.85;100.00;63675.41;4957396;29;20276;-63
2021/09/30 12:41:07;;;;;;;2.63;0.93;;;17.40;99.90;;;-141.85;100.00;63675.41;4957538;29;20213;-63
2021/09/30 12:43:38;;;;;;;2.22;1.00;;;17.30;99.90;;;-141.85;100.00;63675.41;4957258;29;20649;-63
2021/09/30 12:46:11;;;;;;;1.73;0.73;;;17.20;99.90;;;-141.85;100.00;63675.41;4957571;29;20182;-62
2021/09/30 12:48:40;;;;;;;3.88;0.88;;;17.30;99.90;;;-141.85;100.00;63675.41;4957027;29;20204;-63